Time;durP1;ratioP1;P1;durP2;ratioP2;P2;SDS_P1;SDS_P2;PMS_P1;PMS_P2;Temp;Humidity;BMP_temperature;BMP_pressure;BME280_temperature;BME280_humidity;BME280_pressure;Samples;Min_cycle;Max_cycle;Signal;HPM_P1;HPM_P2
2021/06/07 00:02:16;;;;;;;14.63;13.23;;;;;;;15.22;100.00;101147.03;5091001;28;20220;-72
2021/06/07 00:04:41;;;;;;;14.07;12.77;;;;;;;15.20;100.00;101138.31;5091105;28;20174;-72
2021/06/07 00:07:09;;;;;;;15.20;13.80;;;;;;;15.19;100.00;101147.69;5090858;28;20199;-72
2021/06/07 00:09:35;;;;;;;14.33;13.17;;;;;;;15.15;100.00;101139.25;5091034;28;20625;-72
2021/06/07 00:12:06;;;;;;;14.37;13.17;;;;;;;15.17;100.00;101141.69;5089696;28;20200;-72
2021/06/07 00:14:34;;;;;;;13.53;12.33;;;;;;;15.18;100.00;101140.56;5090970;28;20170;-72
2021/06/07 00:16:59;;;;;;;14.33;12.83;;;;;;;15.22;100.00;101146.25;5090711;28;20201;-72
2021/06/07 00:19:28;;;;;;;14.57;13.13;;;;;;;15.24;100.00;101143.97;5090936;28;20265;-72
2021/06/07 00:21:54;;;;;;;14.30;13.10;;;;;;;15.24;100.00;101138.47;5090695;28;20474;-72
2021/06/07 00:24:21;;;;;;;14.27;13.10;;;;;;;15.22;100.00;101140.72;5090534;28;20261;-72
2021/06/07 00:26:47;;;;;;;15.10;13.63;;;;;;;15.21;100.00;101142.69;5089706;28;20572;-72
2021/06/07 00:29:13;;;;;;;15.00;13.53;;;;;;;15.24;100.00;101149.47;5090912;28;20177;-72
2021/06/07 00:31:39;;;;;;;15.97;14.67;;;;;;;15.25;100.00;101148.34;5090835;28;20300;-72
2021/06/07 00:34:05;;;;;;;15.90;14.20;;;;;;;15.26;100.00;101137.00;5090818;28;20517;-72
2021/06/07 00:36:30;;;;;;;14.47;13.20;;;;;;;15.28;100.00;101137.47;5091897;28;20176;-72
2021/06/07 00:38:56;;;;;;;14.33;12.77;;;;;;;15.28;100.00;101137.47;5094834;28;20671;-72
2021/06/07 00:41:22;;;;;;;13.40;12.20;;;;;;;15.28;100.00;101142.16;5094927;28;20197;-73
2021/06/07 00:43:59;;;;;;;12.57;11.53;;;;;;;15.27;100.00;101141.38;5094803;28;20680;-72
2021/06/07 00:46:26;;;;;;;13.83;12.43;;;;;;;15.25;100.00;101140.06;5094741;28;20161;-72
2021/06/07 00:48:54;;;;;;;12.00;10.87;;;;;;;15.19;100.00;101139.44;5094790;28;20196;-72
2021/06/07 00:51:20;;;;;;;12.60;11.60;;;;;;;15.17;100.00;101138.94;5093346;28;20169;-72
2021/06/07 00:53:45;;;;;;;11.60;10.60;;;;;;;15.16;100.00;101140.06;5094654;28;20173;-72
2021/06/07 00:56:12;;;;;;;12.50;11.40;;;;;;;15.18;100.00;101140.56;5094542;28;20166;-72
2021/06/07 00:58:45;;;;;;;13.60;12.00;;;;;;;15.20;100.00;101143.81;5094422;28;20218;-72
2021/06/07 01:01:13;;;;;;;11.77;10.73;;;;;;;15.16;100.00;101138.13;5094389;28;20182;-72
2021/06/07 01:03:40;;;;;;;12.43;11.23;;;;;;;15.11;100.00;101140.25;5094383;28;20206;-72
2021/06/07 01:06:06;;;;;;;12.07;11.07;;;;;;;15.09;100.00;101140.56;5094269;28;20231;-72
2021/06/07 01:08:31;;;;;;;10.93;10.03;;;;;;;15.06;100.00;101141.22;5094330;28;20282;-72
2021/06/07 01:10:57;;;;;;;10.53;9.63;;;;;;;15.04;100.00;101140.72;5094346;28;20636;-72
2021/06/07 01:13:23;;;;;;;11.27;10.27;;;;;;;15.00;100.00;101138.94;5094218;28;20202;-72
2021/06/07 01:15:50;;;;;;;11.37;10.37;;;;;;;14.92;100.00;101131.53;5094266;28;20596;-72
2021/06/07 01:18:16;;;;;;;10.63;9.83;;;;;;;14.92;100.00;101128.78;5093960;28;20169;-72
2021/06/07 01:20:43;;;;;;;9.57;8.87;;;;;;;14.87;100.00;101138.78;5094007;28;20170;-72
2021/06/07 01:23:10;;;;;;;9.83;8.93;;;;;;;14.83;100.00;101142.50;5093866;28;20718;-72
2021/06/07 01:25:39;;;;;;;11.90;10.80;;;;;;;14.86;100.00;101134.41;5082848;28;20186;-72
2021/06/07 01:28:07;;;;;;;10.57;9.57;;;;;;;14.87;100.00;101136.03;5073678;28;20166;-72
2021/06/07 01:30:36;;;;;;;9.30;8.60;;;;;;;14.88;100.00;101134.91;5073622;28;20679;-73
2021/06/07 01:33:05;;;;;;;10.90;10.00;;;;;;;14.86;100.00;101139.91;5073493;28;20182;-72
2021/06/07 01:35:30;;;;;;;10.03;9.20;;;;;;;14.86;99.63;101136.34;5073721;28;20260;-72
2021/06/07 01:37:56;;;;;;;11.27;10.33;;;;;;;14.86;99.53;101144.59;5076359;28;20257;-72
2021/06/07 01:40:26;;;;;;;9.77;8.90;;;;;;;14.86;99.98;101139.91;5074741;28;20192;-72
2021/06/07 01:42:52;;;;;;;9.83;9.13;;;;;;;14.89;99.79;101144.75;5073333;28;20209;-72
2021/06/07 01:45:20;;;;;;;11.13;10.23;;;;;;;14.86;99.54;101144.59;5073266;28;20250;-71
2021/06/07 01:47:46;;;;;;;9.37;8.67;;;;;;;14.87;99.70;101140.72;5073009;28;20174;-72
2021/06/07 01:50:12;;;;;;;9.50;8.67;;;;;;;14.85;100.00;101151.25;5073357;28;20171;-72
2021/06/07 01:52:43;;;;;;;9.63;8.73;;;;;;;14.77;99.33;101141.06;5073249;28;20697;-72
2021/06/07 01:55:36;;;;;;;10.07;9.10;;;;;;;14.66;99.38;101142.50;5073398;28;20197;-72
2021/06/07 01:58:03;;;;;;;9.97;9.07;;;;;;;14.59;99.62;101145.72;5071617;28;20190;-72
2021/06/07 02:00:42;;;;;;;10.10;9.20;;;;;;;14.55;99.48;101142.78;5072999;28;20198;-72
2021/06/07 02:03:08;;;;;;;9.17;8.47;;;;;;;14.55;99.71;101142.00;5073012;28;20251;-71
2021/06/07 02:05:36;;;;;;;10.20;9.30;;;;;;;14.51;99.21;101136.31;5073040;28;20265;-72
2021/06/07 02:08:05;;;;;;;10.30;8.90;;;;;;;14.51;98.88;101138.28;5072910;28;20181;-73
2021/06/07 02:10:34;;;;;;;10.30;9.40;;;;;;;14.50;98.61;101144.91;5072970;28;20171;-72
2021/06/07 02:13:00;;;;;;;10.60;7.83;;;;;;;14.52;98.82;101139.88;5072973;28;20163;-72
2021/06/07 02:15:25;;;;;;;10.37;9.57;;;;;;;14.49;98.75;101143.28;5071622;28;20193;-72
2021/06/07 02:17:51;;;;;;;8.30;7.70;;;;;;;14.43;98.62;101142.56;5072520;28;20528;-73
2021/06/07 02:20:21;;;;;;;8.97;8.27;;;;;;;14.39;98.41;101140.78;5072685;28;20557;-72
2021/06/07 02:22:47;;;;;;;9.60;8.63;;;;;;;14.33;97.91;101144.84;5072465;28;20202;-72
2021/06/07 02:25:15;;;;;;;9.70;9.00;;;;;;;14.28;97.75;101143.84;5071609;28;20562;-72
2021/06/07 02:27:41;;;;;;;9.20;8.30;;;;;;;14.27;97.61;101149.66;5072422;28;20170;-73
2021/06/07 02:30:13;;;;;;;8.23;7.53;;;;;;;14.23;97.39;101137.69;5071193;28;20575;-72
2021/06/07 02:32:40;;;;;;;8.20;7.60;;;;;;;14.20;97.41;101136.38;5072488;28;20673;-73
2021/06/07 02:35:07;;;;;;;8.80;7.93;;;;;;;14.26;97.29;101142.53;5072584;28;20715;-72
2021/06/07 02:37:33;;;;;;;7.80;7.10;;;;;;;14.32;97.77;101145.94;5072179;28;20167;-73
2021/06/07 02:39:58;;;;;;;9.20;8.50;;;;;;;14.36;98.11;101153.25;5072490;28;20256;-72
2021/06/07 02:42:24;;;;;;;8.17;7.47;;;;;;;14.38;98.33;101150.97;5070892;28;20195;-72
2021/06/07 02:44:49;;;;;;;8.13;7.53;;;;;;;14.30;97.24;101144.31;5072407;28;20595;-73
2021/06/07 02:47:16;;;;;;;6.80;6.37;;;;;;;14.24;97.32;101147.53;5071785;28;20174;-73
2021/06/07 02:49:41;;;;;;;8.87;8.17;;;;;;;14.19;97.58;101143.00;5072148;28;20208;-72
2021/06/07 02:52:07;;;;;;;7.50;6.90;;;;;;;14.15;98.10;101146.69;5072053;28;20182;-72
2021/06/07 02:54:32;;;;;;;8.87;8.17;;;;;;;14.08;98.01;101151.84;5072104;28;20200;-72
2021/06/07 02:56:58;;;;;;;8.80;8.00;;;;;;;14.04;98.37;101153.63;5071812;28;20204;-72
2021/06/07 02:59:23;;;;;;;11.33;9.47;;;;;;;13.98;98.19;101145.50;5070079;28;20171;-72
2021/06/07 03:01:49;;;;;;;9.43;8.70;;;;;;;13.95;98.24;101143.41;5071737;28;20664;-72
2021/06/07 03:04:14;;;;;;;9.20;8.50;;;;;;;13.95;98.32;101146.16;5071864;28;20611;-72
2021/06/07 03:06:39;;;;;;;9.20;8.43;;;;;;;13.93;98.39;101145.66;5071753;28;20697;-72
2021/06/07 03:09:05;;;;;;;11.47;9.70;;;;;;;13.90;98.30;101142.75;5071701;28;20257;-72
2021/06/07 03:11:31;;;;;;;11.20;10.23;;;;;;;13.90;98.65;101145.50;5070484;28;20171;-72
2021/06/07 03:13:56;;;;;;;10.33;9.37;;;;;;;13.91;98.81;101149.84;5071786;28;20203;-72
2021/06/07 03:16:22;;;;;;;9.57;8.77;;;;;;;13.86;98.57;101144.47;5070131;28;20559;-72
2021/06/07 03:18:47;;;;;;;11.70;10.70;;;;;;;13.83;99.09;101145.13;5072664;28;20665;-72
2021/06/07 03:21:13;;;;;;;11.63;10.43;;;;;;;13.80;98.66;101152.06;5078707;28;20405;-72
2021/06/07 03:23:40;;;;;;;11.20;10.27;;;;;;;13.81;98.89;101145.44;5071964;28;20206;-72
2021/06/07 03:26:06;;;;;;;11.70;10.50;;;;;;;13.82;99.06;101158.03;5071457;28;20201;-72
2021/06/07 03:28:32;;;;;;;10.70;9.80;;;;;;;13.83;99.22;101151.41;5071719;28;20459;-72
2021/06/07 03:30:59;;;;;;;10.60;9.70;;;;;;;13.80;99.13;101151.25;5071932;28;20175;-73
2021/06/07 03:33:25;;;;;;;9.47;8.77;;;;;;;13.84;99.50;101149.47;5071436;28;20177;-72
2021/06/07 03:35:55;;;;;;;9.77;8.97;;;;;;;13.84;99.72;101153.03;5071245;28;20567;-73
2021/06/07 03:38:20;;;;;;;10.90;9.80;;;;;;;13.80;99.70;101151.25;5071210;28;20210;-72
2021/06/07 03:40:49;;;;;;;9.77;8.87;;;;;;;13.77;99.61;101149.94;5071211;28;20555;-73
2021/06/07 03:43:15;;;;;;;10.53;9.63;;;;;;;13.76;99.80;101148.31;5069721;28;20248;-72
2021/06/07 03:45:41;;;;;;;10.00;9.00;;;;;;;13.74;99.51;101144.25;5071102;28;20170;-72
2021/06/07 03:48:07;;;;;;;10.57;9.60;;;;;;;13.73;99.31;101153.63;5071029;28;20256;-72
2021/06/07 03:50:35;;;;;;;10.23;9.33;;;;;;;13.70;99.42;101144.88;5070988;28;20572;-72
2021/06/07 03:53:02;;;;;;;10.30;9.43;;;;;;;13.79;99.47;101155.13;5070976;28;20181;-72
2021/06/07 03:55:29;;;;;;;12.30;11.20;;;;;;;13.85;99.46;101151.09;5070962;28;20170;-72
2021/06/07 03:57:55;;;;;;;12.93;11.73;;;;;;;13.91;99.53;101141.63;5070737;28;20229;-72
2021/06/07 04:00:27;;;;;;;11.20;10.20;;;;;;;13.88;99.12;101150.47;5069443;28;20332;-72
2021/06/07 04:02:53;;;;;;;11.23;10.20;;;;;;;13.89;99.35;101158.41;5070846;28;20265;-73
2021/06/07 04:05:18;;;;;;;10.77;9.87;;;;;;;13.93;99.54;101150.34;5069540;28;20182;-72
2021/06/07 04:07:44;;;;;;;9.47;8.60;;;;;;;13.94;99.70;101149.22;5070743;28;20178;-73
2021/06/07 04:10:16;;;;;;;9.93;9.00;;;;;;;13.93;99.32;101153.09;5070204;28;20188;-72
2021/06/07 04:12:43;;;;;;;11.83;10.87;;;;;;;13.88;99.36;101155.94;5070455;28;20182;-73
2021/06/07 04:15:10;;;;;;;10.73;9.63;;;;;;;13.91;99.81;101153.41;5069361;28;20190;-73
2021/06/07 04:17:36;;;;;;;10.80;9.80;;;;;;;13.90;100.00;101161.97;5070586;28;20263;-73
2021/06/07 04:20:06;;;;;;;10.47;9.33;;;;;;;13.88;100.00;101154.03;5070640;28;20190;-72
2021/06/07 04:22:31;;;;;;;12.27;10.33;;;;;;;13.91;100.00;101153.41;5070295;28;20285;-72
2021/06/07 04:24:57;;;;;;;10.60;9.57;;;;;;;13.90;100.00;101156.47;5070620;28;20319;-72
2021/06/07 04:27:22;;;;;;;10.27;9.37;;;;;;;13.89;100.00;101155.66;5070700;28;20644;-72
2021/06/07 04:29:48;;;;;;;10.30;9.40;;;;;;;13.88;100.00;101164.19;5070565;28;20179;-72
2021/06/07 04:32:14;;;;;;;11.80;10.60;;;;;;;13.93;100.00;101158.59;5070558;28;20182;-73
2021/06/07 04:34:39;;;;;;;12.03;10.87;;;;;;;13.87;99.79;101159.84;5070530;28;20197;-72
2021/06/07 04:37:06;;;;;;;10.70;8.87;;;;;;;13.86;100.00;101164.50;5070346;28;20480;-73
2021/06/07 04:39:32;;;;;;;11.43;10.43;;;;;;;13.87;100.00;101154.34;5070461;28;20174;-73
2021/06/07 04:41:57;;;;;;;11.30;10.27;;;;;;;13.91;100.00;101153.41;5070493;28;20167;-73
2021/06/07 04:44:23;;;;;;;11.03;9.93;;;;;;;13.89;99.89;101154.84;5070389;28;20192;-72
2021/06/07 04:46:48;;;;;;;12.70;11.40;;;;;;;13.85;99.66;101151.91;5070168;28;20178;-73
2021/06/07 04:49:14;;;;;;;10.07;9.17;;;;;;;13.87;99.18;101146.91;5068855;28;20533;-72
2021/06/07 04:51:39;;;;;;;10.13;9.23;;;;;;;13.82;98.19;101149.00;5070390;28;20178;-72
2021/06/07 04:54:05;;;;;;;12.00;10.83;;;;;;;13.77;98.45;101149.94;5070392;28;20265;-73
2021/06/07 04:56:30;;;;;;;10.10;9.17;;;;;;;13.77;99.34;101152.69;5070155;28;20734;-73
2021/06/07 04:58:56;;;;;;;11.23;10.20;;;;;;;13.81;99.69;101150.13;5070190;28;20184;-72
2021/06/07 05:01:21;;;;;;;10.00;9.13;;;;;;;13.87;100.00;101151.59;5070118;28;20269;-73
2021/06/07 05:03:46;;;;;;;10.47;9.67;;;;;;;13.86;99.72;101149.97;5068851;28;20301;-73
2021/06/07 05:06:12;;;;;;;9.50;8.70;;;;;;;13.80;100.00;101148.50;5070314;28;20231;-72
2021/06/07 05:08:37;;;;;;;10.97;9.97;;;;;;;13.81;100.00;101155.59;5070304;28;20202;-73
2021/06/07 05:11:03;;;;;;;10.43;9.53;;;;;;;13.73;100.00;101150.88;5070207;28;20174;-73
2021/06/07 05:13:29;;;;;;;10.70;9.70;;;;;;;13.69;100.00;101156.19;5070154;28;20738;-73
2021/06/07 05:15:55;;;;;;;9.60;8.80;;;;;;;13.69;100.00;101151.50;5070119;28;20257;-73
2021/06/07 05:18:21;;;;;;;11.13;10.20;;;;;;;13.72;100.00;101152.00;5068497;28;20299;-73
2021/06/07 05:20:47;;;;;;;10.67;9.67;;;;;;;13.69;100.00;101157.00;5070107;28;20752;-73
2021/06/07 05:23:12;;;;;;;10.47;9.57;;;;;;;13.71;100.00;101153.94;5072138;28;20213;-73
2021/06/07 05:25:40;;;;;;;10.33;9.53;;;;;;;13.76;100.00;101161.25;5073988;28;20170;-73
2021/06/07 05:28:07;;;;;;;9.53;8.73;;;;;;;13.79;99.81;101163.34;5073475;28;20170;-73
2021/06/07 05:30:34;;;;;;;9.70;8.90;;;;;;;13.82;99.49;101166.28;5073582;28;20206;-73
2021/06/07 05:32:59;;;;;;;10.73;9.83;;;;;;;13.88;99.50;101159.50;5073563;28;20221;-73
2021/06/07 05:35:28;;;;;;;9.57;8.83;;;;;;;13.91;98.85;101160.84;5072250;28;20819;-73
2021/06/07 05:37:54;;;;;;;10.57;9.67;;;;;;;14.00;99.07;101164.41;5073264;28;20638;-73
2021/06/07 05:40:20;;;;;;;10.20;9.30;;;;;;;14.04;99.03;101167.38;5072186;28;20495;-74
2021/06/07 05:42:47;;;;;;;9.53;8.73;;;;;;;14.08;98.92;101162.84;5073386;28;20621;-72
2021/06/07 05:45:15;;;;;;;10.63;9.67;;;;;;;14.19;98.61;101170.50;5073303;28;20232;-72
2021/06/07 05:47:41;;;;;;;9.63;8.87;;;;;;;14.08;97.10;101171.91;5073090;28;20183;-73
2021/06/07 05:50:09;;;;;;;10.50;9.60;;;;;;;13.98;97.54;101170.22;5073581;28;20175;-72
2021/06/07 05:52:35;;;;;;;11.70;9.43;;;;;;;14.05;98.53;101158.00;5073103;28;20179;-73
2021/06/07 05:55:00;;;;;;;11.93;10.93;;;;;;;14.01;98.54;101157.78;5100870;22;20221;-72
2021/06/07 05:57:26;;;;;;;9.90;9.10;;;;;;;14.25;98.76;101160.16;5083962;28;20170;-72
2021/06/07 05:59:51;;;;;;;10.93;9.93;;;;;;;14.20;96.69;101155.63;5090234;28;20190;-72
2021/06/07 06:02:17;;;;;;;10.13;9.33;;;;;;;14.14;96.32;101161.56;5091603;28;20300;-72
2021/06/07 06:04:43;;;;;;;10.07;9.13;;;;;;;14.12;96.68;101163.81;5084313;28;20562;-72
2021/06/07 06:07:09;;;;;;;10.70;9.80;;;;;;;14.13;97.09;101171.75;5092697;28;20180;-72
2021/06/07 06:09:34;;;;;;;11.27;10.37;;;;;;;14.16;97.12;101165.63;5093187;28;20166;-72
2021/06/07 06:12:00;;;;;;;11.30;10.17;;;;;;;14.24;97.22;101170.34;5091609;28;20174;-72
2021/06/07 06:14:26;;;;;;;9.97;9.07;;;;;;;14.35;96.35;101178.31;5092922;28;20201;-72
2021/06/07 06:16:53;;;;;;;10.63;9.73;;;;;;;14.36;95.75;101169.75;5092592;28;20170;-72
2021/06/07 06:19:18;;;;;;;9.43;8.63;;;;;;;14.39;96.88;101176.53;5092571;28;20174;-72
2021/06/07 06:21:44;;;;;;;10.50;9.60;;;;;;;14.46;97.26;101176.91;5092672;28;20257;-72
2021/06/07 06:24:11;;;;;;;10.00;9.10;;;;;;;14.45;96.38;101172.53;5092547;28;20425;-72
2021/06/07 06:26:38;;;;;;;7.83;7.13;;;;;;;14.48;94.90;101177.41;5079791;28;20183;-72
2021/06/07 06:29:05;;;;;;;8.47;7.77;;;;;;;14.52;92.70;101173.69;5072345;28;20261;-72
2021/06/07 06:31:31;;;;;;;9.20;8.33;;;;;;;14.59;92.07;101171.28;5072402;28;20596;-72
2021/06/07 06:33:56;;;;;;;8.83;8.03;;;;;;;14.59;91.45;101171.28;5071621;28;20300;-72
2021/06/07 06:36:21;;;;;;;7.03;6.43;;;;;;;14.57;91.94;101178.22;5071910;28;20637;-72
2021/06/07 06:38:47;;;;;;;11.00;7.67;;;;;;;14.64;92.79;101175.81;5071927;28;20174;-72
2021/06/07 06:41:13;;;;;;;8.13;7.53;;;;;;;14.64;92.32;101172.28;5070897;28;20186;-72
2021/06/07 06:43:38;;;;;;;7.77;7.17;;;;;;;14.65;92.34;101180.19;5072230;28;20213;-72
2021/06/07 06:46:04;;;;;;;7.37;6.77;;;;;;;14.66;92.30;101183.75;5072017;28;20178;-72
2021/06/07 06:48:32;;;;;;;8.70;8.00;;;;;;;14.67;92.47;101188.94;5071459;28;20174;-72
2021/06/07 06:50:57;;;;;;;7.87;7.27;;;;;;;14.76;93.39;101181.50;5072041;28;20526;-72
2021/06/07 06:53:24;;;;;;;8.30;7.67;;;;;;;14.80;91.89;101184.44;5071907;28;20175;-72
2021/06/07 06:55:49;;;;;;;9.13;8.23;;;;;;;14.87;91.29;101190.25;5071592;28;20240;-72
2021/06/07 06:58:15;;;;;;;7.80;7.20;;;;;;;14.97;90.30;101198.19;5071501;28;20580;-73
2021/06/07 07:00:42;;;;;;;9.07;8.20;;;;;;;15.07;90.23;101197.91;5071641;28;20183;-72
2021/06/07 07:03:10;;;;;;;8.30;7.30;;;;;;;15.19;89.92;101202.75;5070107;28;20226;-72
2021/06/07 07:05:36;;;;;;;9.60;8.20;;;;;;;15.12;90.13;101197.72;5079870;28;20281;-72
2021/06/07 07:08:03;;;;;;;9.33;8.57;;;;;;;15.15;89.51;101197.06;5086899;28;20882;-72
2021/06/07 07:10:29;;;;;;;8.50;7.70;;;;;;;15.24;89.99;101201.78;5091005;28;20177;-72
2021/06/07 07:12:54;;;;;;;8.97;8.20;;;;;;;15.20;89.49;101201.63;5083670;28;20698;-72
2021/06/07 07:15:21;;;;;;;11.20;8.63;;;;;;;15.24;89.66;101202.59;5083654;28;20719;-72
2021/06/07 07:17:47;;;;;;;9.20;8.50;;;;;;;15.22;89.98;101190.28;5071534;28;20174;-72
2021/06/07 07:20:12;;;;;;;11.63;8.93;;;;;;;15.15;89.97;101196.25;5071435;28;20264;-74
2021/06/07 07:22:38;;;;;;;8.33;7.53;;;;;;;15.19;89.75;101202.75;5071425;28;20645;-74
2021/06/07 07:25:05;;;;;;;8.87;8.17;;;;;;;15.11;90.20;101203.56;5071425;28;20178;-73
2021/06/07 07:27:31;;;;;;;7.57;6.97;;;;;;;15.05;90.08;101205.66;5071432;28;20174;-74
2021/06/07 07:29:57;;;;;;;7.97;7.37;;;;;;;15.02;91.16;101199.97;5071228;28;20688;-73
2021/06/07 07:32:26;;;;;;;7.87;7.07;;;;;;;15.03;90.49;101207.09;5071316;28;20231;-74
2021/06/07 07:34:52;;;;;;;9.97;9.17;;;;;;;15.05;90.59;101205.66;5071129;28;20175;-73
2021/06/07 07:37:18;;;;;;;8.87;8.07;;;;;;;15.12;90.95;101203.22;5070936;28;20179;-74
2021/06/07 07:39:43;;;;;;;10.50;9.50;;;;;;;14.95;91.75;101202.41;5071237;28;20265;-74
2021/06/07 07:42:09;;;;;;;10.13;9.33;;;;;;;15.13;91.86;101209.53;5071024;28;20759;-74
2021/06/07 07:44:35;;;;;;;11.27;10.37;;;;;;;15.32;91.55;101217.47;5070953;28;20178;-74
2021/06/07 07:47:02;;;;;;;11.00;9.80;;;;;;;15.40;90.52;101214.72;5070764;28;20202;-73
2021/06/07 07:49:27;;;;;;;11.20;10.10;;;;;;;15.40;90.51;101211.97;5070790;28;20171;-74
2021/06/07 07:51:53;;;;;;;10.50;9.40;;;;;;;15.35;90.01;101214.91;5070965;28;20185;-74
2021/06/07 07:54:18;;;;;;;10.30;9.40;;;;;;;15.53;89.09;101212.13;5070976;28;20200;-74
2021/06/07 07:56:44;;;;;;;10.40;9.50;;;;;;;15.58;88.54;101218.25;5070773;28;20182;-74
2021/06/07 07:59:10;;;;;;;10.67;9.77;;;;;;;15.52;87.67;101218.78;5070851;28;20631;-73
2021/06/07 08:01:35;;;;;;;9.87;9.07;;;;;;;15.60;87.54;101223.47;5071008;28;20173;-74
2021/06/07 08:04:01;;;;;;;8.57;7.77;;;;;;;15.67;86.52;101223.81;5070598;28;20301;-74
2021/06/07 08:06:27;;;;;;;10.13;9.23;;;;;;;15.66;87.77;101223.00;5084578;28;20181;-73
2021/06/07 08:08:53;;;;;;;8.47;7.77;;;;;;;15.72;87.01;101227.19;5085366;28;20181;-73
2021/06/07 08:11:19;;;;;;;10.10;9.30;;;;;;;15.63;86.47;101222.84;5070586;28;20166;-74
2021/06/07 08:13:45;;;;;;;9.53;8.83;;;;;;;15.79;86.97;101229.47;5070796;28;20221;-74
2021/06/07 08:16:10;;;;;;;9.23;8.43;;;;;;;15.91;87.04;101224.09;5070743;28;20621;-73
2021/06/07 08:18:36;;;;;;;10.70;9.70;;;;;;;15.89;85.71;101226.34;5070693;28;20249;-75
2021/06/07 08:21:01;;;;;;;10.80;9.90;;;;;;;15.74;86.06;101224.09;5070638;28;20167;-74
2021/06/07 08:23:26;;;;;;;10.70;9.77;;;;;;;15.72;88.17;101226.38;5070916;28;20594;-74
2021/06/07 08:25:52;;;;;;;9.40;8.60;;;;;;;15.61;87.89;101217.63;5070648;28;20520;-74
2021/06/07 08:28:18;;;;;;;9.13;8.30;;;;;;;15.68;88.14;101219.91;5070440;28;20163;-74
2021/06/07 08:30:44;;;;;;;9.27;8.47;;;;;;;15.70;88.30;101220.41;5070493;28;20174;-75
2021/06/07 08:33:09;;;;;;;10.63;9.50;;;;;;;15.66;88.25;101213.94;5070761;28;20185;-75
2021/06/07 08:35:35;;;;;;;9.63;8.90;;;;;;;15.76;87.17;101214.38;5085864;28;20185;-74
2021/06/07 08:38:00;;;;;;;9.77;8.97;;;;;;;15.69;87.46;101216.03;5090588;28;20260;-75
2021/06/07 08:40:26;;;;;;;10.20;9.20;;;;;;;15.65;87.49;101217.81;5090687;28;20170;-72
2021/06/07 08:42:52;;;;;;;11.60;10.60;;;;;;;15.71;87.34;101219.25;5090683;28;20230;-72
2021/06/07 08:45:22;;;;;;;9.10;8.23;;;;;;;15.64;87.13;101217.00;5090785;28;20181;-72
2021/06/07 08:47:50;;;;;;;9.27;8.23;;;;;;;16.02;87.62;101214.31;5090927;28;20197;-72
2021/06/07 08:50:21;;;;;;;8.93;8.23;;;;;;;16.28;86.82;101218.94;5090693;28;20208;-72
2021/06/07 08:52:47;;;;;;;10.70;8.97;;;;;;;16.18;85.87;101211.81;5085850;28;20162;-72
2021/06/07 08:55:15;;;;;;;11.23;10.23;;;;;;;15.76;87.00;101208.06;5070242;28;20185;-72
2021/06/07 08:57:47;;;;;;;11.27;10.30;;;;;;;15.90;88.35;101213.38;5071944;28;20202;-71
2021/06/07 09:00:19;;;;;;;11.57;10.47;;;;;;;15.67;88.05;101212.78;5074377;28;20163;-72
2021/06/07 09:02:46;;;;;;;11.33;10.33;;;;;;;15.75;88.21;101218.25;5074178;28;20408;-73
2021/06/07 09:05:12;;;;;;;10.83;9.83;;;;;;;15.67;88.22;101210.03;5074178;28;20171;-73
2021/06/07 09:08:07;;;;;;;11.50;10.30;;;;;;;15.91;87.94;101223.25;5073498;28;20249;-73
2021/06/07 09:10:35;;;;;;;10.57;9.57;;;;;;;16.20;86.99;101214.25;5073998;28;20170;-73
2021/06/07 09:13:07;;;;;;;10.60;9.60;;;;;;;16.22;86.44;101212.78;5073997;28;20178;-74
2021/06/07 09:15:40;;;;;;;9.40;8.60;;;;;;;16.41;85.33;101209.63;5073979;28;20174;-73
2021/06/07 09:18:08;;;;;;;10.50;9.43;;;;;;;16.43;84.83;101212.84;5073409;28;20191;-73
2021/06/07 09:20:36;;;;;;;9.10;8.30;;;;;;;16.26;85.81;101213.75;5074138;28;20210;-73
2021/06/07 09:23:07;;;;;;;9.97;9.10;;;;;;;16.48;86.44;101212.66;5073479;28;20206;-73
2021/06/07 09:25:39;;;;;;;10.50;9.53;;;;;;;16.65;86.76;101214.53;5073688;28;20213;-73
2021/06/07 09:28:06;;;;;;;9.97;9.10;;;;;;;16.83;84.92;101209.75;5073616;28;20514;-73
2021/06/07 09:31:00;;;;;;;10.17;9.27;;;;;;;16.80;83.48;101210.41;5073545;28;20175;-73
2021/06/07 09:33:34;;;;;;;9.03;8.33;;;;;;;16.66;83.90;101213.41;5065543;28;20194;-72
2021/06/07 09:36:27;;;;;;;9.53;8.83;;;;;;;16.60;83.26;101210.00;5073704;28;20178;-70
2021/06/07 09:39:08;;;;;;;8.73;8.03;;;;;;;16.77;84.58;101211.06;5073521;28;20202;-71
2021/06/07 09:41:49;;;;;;;9.20;8.33;;;;;;;16.89;84.47;101217.47;5073522;28;20246;-71
2021/06/07 09:44:37;;;;;;;10.60;9.60;;;;;;;16.77;84.23;101222.91;5073441;28;20394;-71
2021/06/07 09:47:16;;;;;;;9.20;8.50;;;;;;;16.88;84.67;101215.06;5073253;28;20167;-71
2021/06/07 09:50:09;;;;;;;8.73;8.03;;;;;;;17.04;83.63;101221.59;5073155;28;20167;-71
2021/06/07 09:52:48;;;;;;;8.23;7.53;;;;;;;17.11;80.86;101223.84;5072591;28;20186;-71
2021/06/07 09:55:17;;;;;;;8.30;7.60;;;;;;;17.05;83.16;101222.41;5073155;28;20281;-71
2021/06/07 09:57:54;;;;;;;9.50;8.60;;;;;;;17.27;82.92;101218.53;5073015;28;20254;-71
2021/06/07 10:00:42;;;;;;;6.70;6.20;;;;;;;17.31;81.33;101213.94;5073101;28;20258;-71
2021/06/07 10:03:22;;;;;;;8.67;7.87;;;;;;;17.57;81.30;101219.22;5073317;28;20563;-71
2021/06/07 10:05:53;;;;;;;7.90;7.20;;;;;;;17.42;81.20;101215.94;5073148;28;20177;-71
2021/06/07 10:08:22;;;;;;;8.13;7.43;;;;;;;17.27;80.37;101204.72;5073050;28;20185;-71
2021/06/07 10:10:49;;;;;;;8.07;7.37;;;;;;;17.19;80.93;101211.91;5072966;28;20179;-71
2021/06/07 10:13:14;;;;;;;8.77;7.97;;;;;;;17.18;81.46;101208.34;5072912;28;20174;-71
2021/06/07 10:15:46;;;;;;;7.27;6.57;;;;;;;17.19;80.96;101212.72;5073073;28;20528;-71
2021/06/07 10:18:13;;;;;;;8.97;8.17;;;;;;;17.30;81.57;101209.56;5072229;28;20228;-71
2021/06/07 10:20:51;;;;;;;8.13;7.53;;;;;;;17.37;82.02;101215.34;5072763;28;20206;-71
2021/06/07 10:23:29;;;;;;;8.90;8.20;;;;;;;16.71;83.07;101217.94;5072738;28;20602;-71
2021/06/07 10:25:57;;;;;;;8.13;7.43;;;;;;;16.98;83.76;101208.34;5072667;28;20170;-72
2021/06/07 10:28:28;;;;;;;8.50;7.80;;;;;;;17.03;81.62;101210.91;5072595;28;20174;-71
2021/06/07 10:30:57;;;;;;;9.03;8.23;;;;;;;17.31;82.94;101211.97;5072472;28;20175;-71
2021/06/07 10:33:42;;;;;;;8.67;7.93;;;;;;;17.45;81.68;101208.94;5072494;28;20177;-71
2021/06/07 10:36:23;;;;;;;7.53;6.93;;;;;;;17.52;79.92;101204.47;5075633;28;20189;-71
2021/06/07 10:39:14;;;;;;;7.43;6.83;;;;;;;17.45;80.46;101209.72;5092215;28;20181;-71
2021/06/07 10:41:42;;;;;;;6.93;6.33;;;;;;;17.72;80.40;101205.59;5080577;28;20174;-71
2021/06/07 10:44:08;;;;;;;8.10;7.40;;;;;;;17.63;81.05;101210.38;5072196;28;20244;-71
2021/06/07 10:46:35;;;;;;;8.47;7.77;;;;;;;17.87;81.52;101214.41;5072046;28;20174;-71
2021/06/07 10:49:03;;;;;;;8.10;7.50;;;;;;;17.88;80.49;101210.47;5072227;28;20567;-71
2021/06/07 10:51:32;;;;;;;7.33;6.73;;;;;;;17.90;80.87;101210.94;5072031;28;20532;-72
2021/06/07 10:54:42;;;;;;;7.93;7.23;;;;;;;17.63;82.40;101207.59;5072083;28;20564;-71
2021/06/07 10:57:26;;;;;;;7.13;6.63;;;;;;;17.75;80.93;101204.13;5068772;28;20202;-71
2021/06/07 10:59:53;;;;;;;6.47;5.97;;;;;;;17.78;82.26;101206.19;5072427;28;20213;-71
2021/06/07 11:02:20;;;;;;;6.43;5.97;;;;;;;17.82;80.54;101204.38;5071869;28;20257;-71
2021/06/07 11:04:59;;;;;;;8.07;7.37;;;;;;;17.91;81.59;101205.06;5072091;28;20256;-71
2021/06/07 11:07:24;;;;;;;6.57;6.03;;;;;;;18.05;81.80;101207.53;5071668;28;20174;-72
2021/06/07 11:10:22;;;;;;;6.60;6.00;;;;;;;17.88;82.16;101204.97;5088097;28;20276;-71
2021/06/07 11:12:50;;;;;;;7.47;6.83;;;;;;;17.81;81.18;101211.06;5091908;28;20647;-71
2021/06/07 11:15:20;;;;;;;7.07;6.53;;;;;;;17.86;80.76;101207.25;5092002;28;20633;-72
2021/06/07 11:17:47;;;;;;;7.07;6.47;;;;;;;18.18;81.84;101205.59;5091603;28;20221;-71
2021/06/07 11:20:13;;;;;;;7.77;7.13;;;;;;;18.34;80.44;101206.50;5091237;28;20667;-71
2021/06/07 11:23:06;;;;;;;7.03;6.53;;;;;;;18.41;80.28;101207.56;5091663;28;20209;-72